KCMA

Details ICAO KCMA
Name CAMARILLO
Region United States
Timezone America/Los_Angeles (UTC-8.0)
Plans Departing 61
Arriving 34
Stats Elevation 77 ft / 23 m (AMSL)
Location 34.213745° -119.093836°
Runways 1
Magnetic Variation 12.191° E
Sunrise 2017-12-18 14:58:22 UTC / 2017-12-18 06:58:22 Local
Sunset 2017-12-19 00:50:38 UTC / 2017-12-18 16:50:38 Local
Advertisement - Login to hide

Runways

ID Width Length Bearing (true) Bearing (mag) Surface Threshold Offset Overrun Length
08 151 ft / 46 m 6,019 ft / 1,835 m 90.56° 78.37° Asphalt 0 ft / 0 m 1,076 ft / 328 m
26 151 ft / 46 m 6,019 ft / 1,835 m 270.57° 258.38° Asphalt 0 ft / 0 m 2,861 ft / 872 m

Map

Weather


0- 5 10 15 20 25 30 35+ Temperature / ° C

Clouds and Precipitation
Forecast for 2017-12-18 18:00 UTC. Updated an hour ago

Ground ~20,000 ft ~40,000 ft Winds

METAR

KCMA 181555Z AUTO 07020G27KT 10SM FU CLR 18/M14 A3014 RMK AO2 PK WND 07027/1550 SLP215 T01781144

TAF

TAF AMD KCMA 181406Z 1814/1912 07015KT P6SM SKC FM181600 07018G28KT P6SM SKC FM181800 07012KT P6SM SKC FM182100 23008KT P6SM SKC FM190300 VRB03KT P6SM SKC

Frequencies

Recorded 126.02 MHz ATIS
Clearance 120.75 MHz CLNC DEL
Ground 121.80 MHz GND
Approach 124.70 MHz PT MUGU APP/DEP
Unicom 128.20 MHz CTAF
Clearance 121.80 MHz CLNC DEL
Tower 128.20 MHz TWR
Warning: Do not use this data for real-world aviation or navigation. No guarantee of current accuracy is given.